Sunday, October 21, 2018, 6:15 AM EDT
Back to Local

KISP, Islip Long Island Mac Art

Location: Ronkonkoma, NY, United States Lat: 40.8
Local Time: 6:15 AM EDT (10:15 GMT) Lon: -73.1
Time Zone: US/Eastern Elev: 98 ft

Show me the last for .
Show Decoded

2018-10-21 04:56 METAR KISP 210856Z AUTO 34012KT 10SM FEW024 OVC050 09/05 A2963 RMK AO2 SLP032
                 T00940050 53017 =
2018-10-21 03:56 METAR KISP 210756Z AUTO 34008KT 10SM FEW065 09/06 A2959 RMK AO2 SLP018 T00890056
                 =
2018-10-21 02:56 METAR KISP 210656Z AUTO 34012KT 10SM BKN070 11/08 A2958 RMK AO2 SLP016 T01060078
                 =
2018-10-21 01:56 METAR KISP 210556Z AUTO 31007KT 10SM SCT090 10/08 A2958 RMK AO2 SLP015 T01000078
                 10117 20078 55012 =
2018-10-21 00:56 METAR KISP 210456Z AUTO 33008KT 10SM FEW060 10/08 A2957 RMK AO2 PRESFR SLP012
                 T01000078 401830078 =
2018-10-20 23:56 METAR KISP 210356Z 34005KT 10SM SCT060 SCT250 08/07 A2959 RMK AO2 SLP020 LAST
                 T00780072 =
2018-10-20 22:56 METAR KISP 210256Z 00000KT 10SM FEW070 FEW150 SCT250 10/08 A2961 RMK AO2 SLP026
                 T01000078 50001 =
2018-10-20 21:56 METAR KISP 210156Z 26003KT 10SM BKN070 BKN150 BKN250 11/09 A2961 RMK AO2 SLP027
                 T01060089 =
2018-10-20 20:56 METAR KISP 210056Z 24004KT 10SM FEW070 FEW150 FEW250 10/08 A2961 RMK AO2 SLP026
                 T01000083 =
2018-10-20 19:56 METAR KISP 202356Z 24004KT 10SM FEW040 FEW250 11/09 A2961 RMK AO2 SLP026
                 T01060089 10183 20106 51004 =
2018-10-20 18:56 METAR KISP 202256Z 23006KT 10SM FEW040 FEW250 12/09 A2961 RMK AO2 SLP026
                 T01170089 =
2018-10-20 17:56 METAR KISP 202156Z 23005KT 10SM FEW040 FEW075 SCT250 14/07 A2961 RMK AO2 SLP025
                 T01440072 =
2018-10-20 16:56 METAR KISP 202056Z 28009KT 10SM FEW040 SCT250 17/07 A2960 RMK AO2 SLP021
                 T01720067 56022 =
2018-10-20 15:56 METAR KISP 201956Z 26008KT 10SM SCT041 BKN250 17/08 A2961 RMK AO2 SLP027
                 T01720083 =
2018-10-20 14:56 METAR KISP 201856Z 25012KT 10SM SCT040 BKN250 17/09 A2964 RMK AO2 SLP037
                 T01720094 =
2018-10-20 13:56 METAR KISP 201756Z 27012KT 10SM SCT026 BKN034 BKN250 17/10 A2966 RMK AO2 SLP043
                 T01670100 10172 20139 58019 =
2018-10-20 12:56 METAR KISP 201656Z 27011KT 10SM BKN027 OVC034 16/10 A2969 RMK AO2 SLP053
                 T01560100 =
2018-10-20 11:56 METAR KISP 201556Z 27011KT 10SM BKN023 OVC070 16/11 A2970 RMK AO2 SLP057
                 T01560111 =
2018-10-20 10:56 METAR KISP 201456Z 24012G19KT 10SM BKN020 OVC070 16/12 A2972 RMK AO2 SLP063
                 T01560117 58011 =
2018-10-20 09:56 METAR KISP 201356Z 25013G19KT 10SM FEW013 FEW035 BKN055 OVC250 16/12 A2974 RMK
                 AO2 SLP070 T01560117 =
2018-10-20 08:56 METAR KISP 201256Z 25010KT 10SM FEW020 OVC035 14/12 A2976 RMK AO2 SLP076
                 T01390122 =
2018-10-20 07:56 METAR KISP 201156Z 23013KT 10SM FEW020 OVC055 14/12 A2975 RMK AO2 SLP074 60008
                 70008 T01390122 10156 20128 55013 =
2018-10-20 06:56 METAR KISP 201056Z 22010KT 10SM SCT020 OVC065 13/12 A2975 RMK AO2 RAE20 SLP073
                 P0001 T01330122 =

Support USWX by starting your Amazon purchase here.